sensor_id;sensor_type;location;lat;lon;timestamp;temperature;humidity
3562;DHT22;1795;52.074;4.754;2022-08-19T00:01:23;20.20;99.90
3562;DHT22;1795;52.074;4.754;2022-08-19T00:03:57;20.20;99.90
3562;DHT22;1795;52.074;4.754;2022-08-19T00:06:26;20.20;99.90
3562;DHT22;1795;52.074;4.754;2022-08-19T00:08:55;20.10;99.90
3562;DHT22;1795;52.074;4.754;2022-08-19T00:11:23;20.10;99.90
3562;DHT22;1795;52.074;4.754;2022-08-19T00:13:54;20.00;99.90
3562;DHT22;1795;52.074;4.754;2022-08-19T00:16:24;20.00;99.90
3562;DHT22;1795;52.074;4.754;2022-08-19T00:18:53;20.00;99.90
3562;DHT22;1795;52.074;4.754;2022-08-19T00:21:24;20.00;99.90
3562;DHT22;1795;52.074;4.754;2022-08-19T00:23:53;19.90;99.90
3562;DHT22;1795;52.074;4.754;2022-08-19T00:26:21;20.00;99.90
3562;DHT22;1795;52.074;4.754;2022-08-19T00:28:51;19.90;99.90
3562;DHT22;1795;52.074;4.754;2022-08-19T00:31:19;19.90;99.90
3562;DHT22;1795;52.074;4.754;2022-08-19T00:33:47;19.80;99.90
3562;DHT22;1795;52.074;4.754;2022-08-19T00:36:17;19.80;99.90
3562;DHT22;1795;52.074;4.754;2022-08-19T00:38:47;19.80;99.90
3562;DHT22;1795;52.074;4.754;2022-08-19T00:41:16;19.90;99.90
3562;DHT22;1795;52.074;4.754;2022-08-19T00:43:57;19.80;99.90
3562;DHT22;1795;52.074;4.754;2022-08-19T00:46:26;19.80;99.90
3562;DHT22;1795;52.074;4.754;2022-08-19T00:48:54;19.80;99.90
3562;DHT22;1795;52.074;4.754;2022-08-19T00:51:24;19.70;99.90
3562;DHT22;1795;52.074;4.754;2022-08-19T00:53:55;19.70;99.90
3562;DHT22;1795;52.074;4.754;2022-08-19T00:56:25;19.60;99.90
3562;DHT22;1795;52.074;4.754;2022-08-19T00:58:55;19.70;99.90
3562;DHT22;1795;52.074;4.754;2022-08-19T01:01:24;19.60;99.90
3562;DHT22;1795;52.074;4.754;2022-08-19T01:03:52;19.60;99.90
3562;DHT22;1795;52.074;4.754;2022-08-19T01:06:24;19.60;99.90
3562;DHT22;1795;52.074;4.754;2022-08-19T01:08:55;19.60;99.90
3562;DHT22;1795;52.074;4.754;2022-08-19T01:11:23;19.60;99.90
3562;DHT22;1795;52.074;4.754;2022-08-19T01:13:52;19.60;99.90
3562;DHT22;1795;52.074;4.754;2022-08-19T01:16:24;19.60;99.90
3562;DHT22;1795;52.074;4.754;2022-08-19T01:18:52;19.50;99.90
3562;DHT22;1795;52.074;4.754;2022-08-19T01:21:26;19.50;99.90
3562;DHT22;1795;52.074;4.754;2022-08-19T01:23:56;19.50;99.90
3562;DHT22;1795;52.074;4.754;2022-08-19T01:26:25;19.50;99.90
3562;DHT22;1795;52.074;4.754;2022-08-19T01:28:57;19.40;99.90
3562;DHT22;1795;52.074;4.754;2022-08-19T01:31:28;19.50;99.90
3562;DHT22;1795;52.074;4.754;2022-08-19T01:33:59;19.50;99.90
3562;DHT22;1795;52.074;4.754;2022-08-19T01:36:30;19.40;99.90
3562;DHT22;1795;52.074;4.754;2022-08-19T01:39:01;19.40;99.90
3562;DHT22;1795;52.074;4.754;2022-08-19T01:41:30;19.40;99.90
3562;DHT22;1795;52.074;4.754;2022-08-19T01:43:58;19.40;99.90
3562;DHT22;1795;52.074;4.754;2022-08-19T01:46:46;19.40;99.90
3562;DHT22;1795;52.074;4.754;2022-08-19T01:49:17;19.40;99.90
3562;DHT22;1795;52.074;4.754;2022-08-19T01:51:45;19.30;99.90
3562;DHT22;1795;52.074;4.754;2022-08-19T01:54:16;19.30;99.90
3562;DHT22;1795;52.074;4.754;2022-08-19T01:56:57;19.30;99.90
3562;DHT22;1795;52.074;4.754;2022-08-19T01:59:26;19.30;99.90
3562;DHT22;1795;52.074;4.754;2022-08-19T02:01:54;19.30;99.90
3562;DHT22;1795;52.074;4.754;2022-08-19T02:04:22;19.20;99.90
3562;DHT22;1795;52.074;4.754;2022-08-19T02:06:52;19.30;99.90
3562;DHT22;1795;52.074;4.754;2022-08-19T02:09:21;19.20;99.90
3562;DHT22;1795;52.074;4.754;2022-08-19T02:11:49;19.20;99.90
3562;DHT22;1795;52.074;4.754;2022-08-19T02:14:17;19.20;99.90
3562;DHT22;1795;52.074;4.754;2022-08-19T02:16:45;19.20;99.90
3562;DHT22;1795;52.074;4.754;2022-08-19T02:19:13;19.20;99.90
3562;DHT22;1795;52.074;4.754;2022-08-19T02:21:41;19.20;99.90
3562;DHT22;1795;52.074;4.754;2022-08-19T02:24:10;19.20;99.90
3562;DHT22;1795;52.074;4.754;2022-08-19T02:26:40;19.20;99.90
3562;DHT22;1795;52.074;4.754;2022-08-19T02:29:08;19.10;99.90
3562;DHT22;1795;52.074;4.754;2022-08-19T02:31:36;19.10;99.90
3562;DHT22;1795;52.074;4.754;2022-08-19T02:34:04;19.10;99.90
3562;DHT22;1795;52.074;4.754;2022-08-19T02:36:32;19.10;99.90
3562;DHT22;1795;52.074;4.754;2022-08-19T02:39:00;19.10;99.90
3562;DHT22;1795;52.074;4.754;2022-08-19T02:41:29;19.10;99.90
3562;DHT22;1795;52.074;4.754;2022-08-19T02:44:00;19.10;99.90
3562;DHT22;1795;52.074;4.754;2022-08-19T02:46:48;19.10;99.90
3562;DHT22;1795;52.074;4.754;2022-08-19T02:49:18;19.00;99.90
3562;DHT22;1795;52.074;4.754;2022-08-19T02:51:46;19.00;99.90
3562;DHT22;1795;52.074;4.754;2022-08-19T02:54:14;19.00;99.90
3562;DHT22;1795;52.074;4.754;2022-08-19T02:56:44;19.00;99.90
3562;DHT22;1795;52.074;4.754;2022-08-19T02:59:13;19.00;99.90
3562;DHT22;1795;52.074;4.754;2022-08-19T03:01:42;19.00;99.90
3562;DHT22;1795;52.074;4.754;2022-08-19T03:04:15;19.00;99.90
3562;DHT22;1795;52.074;4.754;2022-08-19T03:06:45;19.00;99.90
3562;DHT22;1795;52.074;4.754;2022-08-19T03:09:14;19.00;99.90
3562;DHT22;1795;52.074;4.754;2022-08-19T03:11:43;19.00;99.90
3562;DHT22;1795;52.074;4.754;2022-08-19T03:14:11;18.90;99.90
3562;DHT22;1795;52.074;4.754;2022-08-19T03:16:43;19.00;99.90
3562;DHT22;1795;52.074;4.754;2022-08-19T03:19:12;18.90;99.90
3562;DHT22;1795;52.074;4.754;2022-08-19T03:21:41;18.90;99.90
3562;DHT22;1795;52.074;4.754;2022-08-19T03:24:11;18.90;99.90
3562;DHT22;1795;52.074;4.754;2022-08-19T03:26:40;18.90;99.90
3562;DHT22;1795;52.074;4.754;2022-08-19T03:29:08;18.90;99.90
3562;DHT22;1795;52.074;4.754;2022-08-19T03:31:42;18.90;99.90
3562;DHT22;1795;52.074;4.754;2022-08-19T03:34:22;18.90;99.90
3562;DHT22;1795;52.074;4.754;2022-08-19T03:36:53;18.90;99.90
3562;DHT22;1795;52.074;4.754;2022-08-19T03:39:22;18.80;99.90
3562;DHT22;1795;52.074;4.754;2022-08-19T03:41:52;18.90;99.90
3562;DHT22;1795;52.074;4.754;2022-08-19T03:44:40;18.90;99.90
3562;DHT22;1795;52.074;4.754;2022-08-19T03:47:10;18.80;99.90
3562;DHT22;1795;52.074;4.754;2022-08-19T03:49:42;18.80;99.90
3562;DHT22;1795;52.074;4.754;2022-08-19T03:52:10;18.80;99.90
3562;DHT22;1795;52.074;4.754;2022-08-19T03:54:39;18.80;99.90
3562;DHT22;1795;52.074;4.754;2022-08-19T03:57:07;18.80;99.90
3562;DHT22;1795;52.074;4.754;2022-08-19T03:59:36;18.80;99.90
3562;DHT22;1795;52.074;4.754;2022-08-19T04:02:08;18.70;99.90
3562;DHT22;1795;52.074;4.754;2022-08-19T04:04:40;18.80;99.90
3562;DHT22;1795;52.074;4.754;2022-08-19T04:07:11;18.80;99.90
3562;DHT22;1795;52.074;4.754;2022-08-19T04:09:40;18.70;99.90
3562;DHT22;1795;52.074;4.754;2022-08-19T04:12:08;18.80;99.90
3562;DHT22;1795;52.074;4.754;2022-08-19T04:14:36;18.80;99.90
3562;DHT22;1795;52.074;4.754;2022-08-19T04:17:04;18.70;99.90
3562;DHT22;1795;52.074;4.754;2022-08-19T04:19:33;18.80;99.90
3562;DHT22;1795;52.074;4.754;2022-08-19T04:22:03;18.80;99.90
3562;DHT22;1795;52.074;4.754;2022-08-19T04:24:35;18.70;99.90
3562;DHT22;1795;52.074;4.754;2022-08-19T04:27:03;18.70;99.90
3562;DHT22;1795;52.074;4.754;2022-08-19T04:29:33;18.70;99.90
3562;DHT22;1795;52.074;4.754;2022-08-19T04:32:01;18.70;99.90
3562;DHT22;1795;52.074;4.754;2022-08-19T04:34:35;18.70;99.90
3562;DHT22;1795;52.074;4.754;2022-08-19T04:37:24;18.70;99.90
3562;DHT22;1795;52.074;4.754;2022-08-19T04:39:57;18.70;99.90
3562;DHT22;1795;52.074;4.754;2022-08-19T04:42:43;18.70;99.90
3562;DHT22;1795;52.074;4.754;2022-08-19T04:45:13;18.70;99.90
3562;DHT22;1795;52.074;4.754;2022-08-19T04:47:43;18.60;99.90
3562;DHT22;1795;52.074;4.754;2022-08-19T04:50:24;18.70;99.90
3562;DHT22;1795;52.074;4.754;2022-08-19T04:52:54;18.70;99.90
3562;DHT22;1795;52.074;4.754;2022-08-19T04:55:23;18.70;99.90
3562;DHT22;1795;52.074;4.754;2022-08-19T04:57:53;18.60;99.90
3562;DHT22;1795;52.074;4.754;2022-08-19T05:00:21;18.70;99.90
3562;DHT22;1795;52.074;4.754;2022-08-19T05:02:49;18.60;99.90
3562;DHT22;1795;52.074;4.754;2022-08-19T05:05:18;18.70;99.90
3562;DHT22;1795;52.074;4.754;2022-08-19T05:07:46;18.70;99.90
3562;DHT22;1795;52.074;4.754;2022-08-19T05:10:15;18.70;99.90
3562;DHT22;1795;52.074;4.754;2022-08-19T05:12:43;18.70;99.90
3562;DHT22;1795;52.074;4.754;2022-08-19T05:15:11;18.70;99.90
3562;DHT22;1795;52.074;4.754;2022-08-19T05:17:39;18.70;99.90
3562;DHT22;1795;52.074;4.754;2022-08-19T05:20:28;18.70;99.90
3562;DHT22;1795;52.074;4.754;2022-08-19T05:23:14;18.70;99.90
3562;DHT22;1795;52.074;4.754;2022-08-19T05:25:49;18.80;99.90
3562;DHT22;1795;52.074;4.754;2022-08-19T05:28:18;18.80;99.90
3562;DHT22;1795;52.074;4.754;2022-08-19T05:30:46;18.80;99.90
3562;DHT22;1795;52.074;4.754;2022-08-19T05:33:17;18.80;99.90
3562;DHT22;1795;52.074;4.754;2022-08-19T05:35:45;18.80;99.90
3562;DHT22;1795;52.074;4.754;2022-08-19T05:38:15;18.90;99.90
3562;DHT22;1795;52.074;4.754;2022-08-19T05:40:43;18.90;99.90
3562;DHT22;1795;52.074;4.754;2022-08-19T05:43:15;18.90;99.90
3562;DHT22;1795;52.074;4.754;2022-08-19T05:45:43;18.90;99.90
3562;DHT22;1795;52.074;4.754;2022-08-19T05:48:13;19.00;99.90
3562;DHT22;1795;52.074;4.754;2022-08-19T05:50:41;19.00;99.90
3562;DHT22;1795;52.074;4.754;2022-08-19T05:53:12;19.00;99.90
3562;DHT22;1795;52.074;4.754;2022-08-19T05:55:41;19.10;99.90
3562;DHT22;1795;52.074;4.754;2022-08-19T05:58:09;19.10;99.90
3562;DHT22;1795;52.074;4.754;2022-08-19T06:00:39;19.10;99.90
3562;DHT22;1795;52.074;4.754;2022-08-19T06:03:07;19.10;99.90
3562;DHT22;1795;52.074;4.754;2022-08-19T06:05:39;19.20;99.90
3562;DHT22;1795;52.074;4.754;2022-08-19T06:08:17;19.20;99.90
3562;DHT22;1795;52.074;4.754;2022-08-19T06:11:12;19.20;99.90
3562;DHT22;1795;52.074;4.754;2022-08-19T06:13:40;19.30;99.90
3562;DHT22;1795;52.074;4.754;2022-08-19T06:16:09;19.30;99.90
3562;DHT22;1795;52.074;4.754;2022-08-19T06:18:37;19.30;99.90
3562;DHT22;1795;52.074;4.754;2022-08-19T06:21:05;19.30;99.90
3562;DHT22;1795;52.074;4.754;2022-08-19T06:23:33;19.40;99.90
3562;DHT22;1795;52.074;4.754;2022-08-19T06:26:02;19.40;99.90
3562;DHT22;1795;52.074;4.754;2022-08-19T06:28:30;19.40;99.90
3562;DHT22;1795;52.074;4.754;2022-08-19T06:31:06;19.50;99.90
3562;DHT22;1795;52.074;4.754;2022-08-19T06:33:35;19.60;99.90
3562;DHT22;1795;52.074;4.754;2022-08-19T06:36:04;19.60;99.90
3562;DHT22;1795;52.074;4.754;2022-08-19T06:38:32;19.70;99.90
3562;DHT22;1795;52.074;4.754;2022-08-19T06:41:02;19.70;99.90
3562;DHT22;1795;52.074;4.754;2022-08-19T06:43:33;19.70;99.90
3562;DHT22;1795;52.074;4.754;2022-08-19T06:46:10;19.70;99.90
3562;DHT22;1795;52.074;4.754;2022-08-19T06:48:42;19.80;99.90
3562;DHT22;1795;52.074;4.754;2022-08-19T06:51:12;19.90;99.90
3562;DHT22;1795;52.074;4.754;2022-08-19T06:53:45;19.90;99.90
3562;DHT22;1795;52.074;4.754;2022-08-19T06:56:14;20.00;99.90
3562;DHT22;1795;52.074;4.754;2022-08-19T06:58:43;20.00;99.90
3562;DHT22;1795;52.074;4.754;2022-08-19T07:01:12;20.00;99.90
3562;DHT22;1795;52.074;4.754;2022-08-19T07:03:42;20.10;99.90
3562;DHT22;1795;52.074;4.754;2022-08-19T07:06:12;20.20;99.90
3562;DHT22;1795;52.074;4.754;2022-08-19T07:09:02;20.20;99.90
3562;DHT22;1795;52.074;4.754;2022-08-19T07:11:31;20.30;99.90
3562;DHT22;1795;52.074;4.754;2022-08-19T07:14:00;20.30;99.90
3562;DHT22;1795;52.074;4.754;2022-08-19T07:16:29;20.40;99.90
3562;DHT22;1795;52.074;4.754;2022-08-19T07:18:58;20.40;99.90
3562;DHT22;1795;52.074;4.754;2022-08-19T07:21:42;20.50;99.90
3562;DHT22;1795;52.074;4.754;2022-08-19T07:24:10;20.50;99.90
3562;DHT22;1795;52.074;4.754;2022-08-19T07:26:41;20.60;99.90
3562;DHT22;1795;52.074;4.754;2022-08-19T07:29:11;20.60;99.90
3562;DHT22;1795;52.074;4.754;2022-08-19T07:31:40;20.70;99.90
3562;DHT22;1795;52.074;4.754;2022-08-19T07:34:13;20.70;99.90
3562;DHT22;1795;52.074;4.754;2022-08-19T07:36:43;20.80;99.90
3562;DHT22;1795;52.074;4.754;2022-08-19T07:39:14;20.80;99.90
3562;DHT22;1795;52.074;4.754;2022-08-19T07:41:43;20.90;99.90
3562;DHT22;1795;52.074;4.754;2022-08-19T07:44:12;20.90;99.90
3562;DHT22;1795;52.074;4.754;2022-08-19T07:46:43;21.00;99.90
3562;DHT22;1795;52.074;4.754;2022-08-19T07:49:17;21.00;99.90
3562;DHT22;1795;52.074;4.754;2022-08-19T07:51:47;21.10;99.90
3562;DHT22;1795;52.074;4.754;2022-08-19T07:54:16;21.10;99.90
3562;DHT22;1795;52.074;4.754;2022-08-19T07:56:45;21.10;99.90
3562;DHT22;1795;52.074;4.754;2022-08-19T07:59:13;21.30;99.90
3562;DHT22;1795;52.074;4.754;2022-08-19T08:01:41;21.30;99.90
3562;DHT22;1795;52.074;4.754;2022-08-19T08:04:10;21.40;99.90
3562;DHT22;1795;52.074;4.754;2022-08-19T08:07:08;21.40;99.90
3562;DHT22;1795;52.074;4.754;2022-08-19T08:09:57;21.50;99.90
3562;DHT22;1795;52.074;4.754;2022-08-19T08:12:32;21.60;99.90
3562;DHT22;1795;52.074;4.754;2022-08-19T08:15:04;21.70;99.90
3562;DHT22;1795;52.074;4.754;2022-08-19T08:17:34;21.80;99.90
3562;DHT22;1795;52.074;4.754;2022-08-19T08:20:15;21.80;99.90
3562;DHT22;1795;52.074;4.754;2022-08-19T08:22:46;21.90;99.90
3562;DHT22;1795;52.074;4.754;2022-08-19T08:25:32;22.00;99.90
3562;DHT22;1795;52.074;4.754;2022-08-19T08:28:02;22.10;99.90
3562;DHT22;1795;52.074;4.754;2022-08-19T08:30:31;22.10;99.90
3562;DHT22;1795;52.074;4.754;2022-08-19T08:33:03;22.20;99.90
3562;DHT22;1795;52.074;4.754;2022-08-19T08:35:31;22.20;99.90
3562;DHT22;1795;52.074;4.754;2022-08-19T08:38:01;22.30;99.90
3562;DHT22;1795;52.074;4.754;2022-08-19T08:40:34;22.30;99.90
3562;DHT22;1795;52.074;4.754;2022-08-19T08:43:07;22.40;99.90
3562;DHT22;1795;52.074;4.754;2022-08-19T08:45:43;22.50;99.90
3562;DHT22;1795;52.074;4.754;2022-08-19T08:48:24;22.50;99.90
3562;DHT22;1795;52.074;4.754;2022-08-19T08:50:54;22.50;99.90
3562;DHT22;1795;52.074;4.754;2022-08-19T08:53:25;22.60;99.90
3562;DHT22;1795;52.074;4.754;2022-08-19T08:56:02;22.70;99.90
3562;DHT22;1795;52.074;4.754;2022-08-19T08:58:37;22.70;99.90
3562;DHT22;1795;52.074;4.754;2022-08-19T09:01:10;22.70;99.90
3562;DHT22;1795;52.074;4.754;2022-08-19T09:03:40;22.80;99.90
3562;DHT22;1795;52.074;4.754;2022-08-19T09:06:14;22.90;99.90
3562;DHT22;1795;52.074;4.754;2022-08-19T09:08:49;22.90;99.90
3562;DHT22;1795;52.074;4.754;2022-08-19T09:11:34;22.90;99.90
3562;DHT22;1795;52.074;4.754;2022-08-19T09:14:17;22.90;99.90
3562;DHT22;1795;52.074;4.754;2022-08-19T09:17:09;23.00;99.90
3562;DHT22;1795;52.074;4.754;2022-08-19T09:19:51;23.10;99.90
3562;DHT22;1795;52.074;4.754;2022-08-19T09:22:20;23.10;99.90
3562;DHT22;1795;52.074;4.754;2022-08-19T09:24:55;23.10;99.90
3562;DHT22;1795;52.074;4.754;2022-08-19T09:27:24;23.20;99.90
3562;DHT22;1795;52.074;4.754;2022-08-19T09:30:12;23.20;99.90
3562;DHT22;1795;52.074;4.754;2022-08-19T09:32:41;23.30;99.90
3562;DHT22;1795;52.074;4.754;2022-08-19T09:35:10;23.30;99.90
3562;DHT22;1795;52.074;4.754;2022-08-19T09:37:39;23.30;99.90
3562;DHT22;1795;52.074;4.754;2022-08-19T09:40:11;23.40;99.90
3562;DHT22;1795;52.074;4.754;2022-08-19T09:42:41;23.40;99.90
3562;DHT22;1795;52.074;4.754;2022-08-19T09:45:18;23.50;99.90
3562;DHT22;1795;52.074;4.754;2022-08-19T09:47:47;23.50;99.90
3562;DHT22;1795;52.074;4.754;2022-08-19T09:50:16;23.60;99.90
3562;DHT22;1795;52.074;4.754;2022-08-19T09:52:44;23.70;99.90
3562;DHT22;1795;52.074;4.754;2022-08-19T09:55:24;23.80;99.90
3562;DHT22;1795;52.074;4.754;2022-08-19T09:57:59;23.90;99.90
3562;DHT22;1795;52.074;4.754;2022-08-19T10:00:27;23.90;99.90
3562;DHT22;1795;52.074;4.754;2022-08-19T10:02:56;24.00;99.90
3562;DHT22;1795;52.074;4.754;2022-08-19T10:05:25;24.00;99.90
3562;DHT22;1795;52.074;4.754;2022-08-19T10:08:15;24.20;99.90
3562;DHT22;1795;52.074;4.754;2022-08-19T10:10:45;24.20;99.90
3562;DHT22;1795;52.074;4.754;2022-08-19T10:13:15;24.20;99.90
3562;DHT22;1795;52.074;4.754;2022-08-19T10:15:44;24.20;99.90
3562;DHT22;1795;52.074;4.754;2022-08-19T10:18:14;24.30;99.90
3562;DHT22;1795;52.074;4.754;2022-08-19T10:20:45;24.30;99.90
3562;DHT22;1795;52.074;4.754;2022-08-19T10:23:19;24.40;99.90
3562;DHT22;1795;52.074;4.754;2022-08-19T10:25:49;24.40;99.90
3562;DHT22;1795;52.074;4.754;2022-08-19T10:28:18;24.50;99.90
3562;DHT22;1795;52.074;4.754;2022-08-19T10:30:46;24.50;99.90
3562;DHT22;1795;52.074;4.754;2022-08-19T10:33:15;24.50;99.90
3562;DHT22;1795;52.074;4.754;2022-08-19T10:36:05;24.50;99.90
3562;DHT22;1795;52.074;4.754;2022-08-19T10:38:34;24.60;99.90
3562;DHT22;1795;52.074;4.754;2022-08-19T10:41:11;24.50;99.90
3562;DHT22;1795;52.074;4.754;2022-08-19T10:43:40;24.50;99.90
3562;DHT22;1795;52.074;4.754;2022-08-19T10:46:11;24.50;99.90
3562;DHT22;1795;52.074;4.754;2022-08-19T10:48:43;24.50;99.90
3562;DHT22;1795;52.074;4.754;2022-08-19T10:51:12;24.50;99.90
3562;DHT22;1795;52.074;4.754;2022-08-19T10:53:57;24.60;99.90
3562;DHT22;1795;52.074;4.754;2022-08-19T10:56:28;24.50;99.90
3562;DHT22;1795;52.074;4.754;2022-08-19T10:59:13;24.50;99.90
3562;DHT22;1795;52.074;4.754;2022-08-19T11:01:43;24.50;99.90
3562;DHT22;1795;52.074;4.754;2022-08-19T11:04:13;24.50;99.90
3562;DHT22;1795;52.074;4.754;2022-08-19T11:06:45;24.50;99.90
3562;DHT22;1795;52.074;4.754;2022-08-19T11:09:14;24.60;99.90
3562;DHT22;1795;52.074;4.754;2022-08-19T11:11:44;24.60;99.90
3562;DHT22;1795;52.074;4.754;2022-08-19T11:14:16;24.60;99.90
3562;DHT22;1795;52.074;4.754;2022-08-19T11:16:47;24.70;99.90
3562;DHT22;1795;52.074;4.754;2022-08-19T11:19:16;24.70;99.90
3562;DHT22;1795;52.074;4.754;2022-08-19T11:21:48;24.80;99.90
3562;DHT22;1795;52.074;4.754;2022-08-19T11:24:17;24.80;99.90
3562;DHT22;1795;52.074;4.754;2022-08-19T11:26:50;24.90;99.90
3562;DHT22;1795;52.074;4.754;2022-08-19T11:29:20;24.90;99.90
3562;DHT22;1795;52.074;4.754;2022-08-19T11:31:52;24.90;99.90
3562;DHT22;1795;52.074;4.754;2022-08-19T11:34:23;25.00;99.90
3562;DHT22;1795;52.074;4.754;2022-08-19T11:36:54;25.00;99.90
3562;DHT22;1795;52.074;4.754;2022-08-19T11:39:26;25.00;99.90
3562;DHT22;1795;52.074;4.754;2022-08-19T11:41:57;25.00;99.90
3562;DHT22;1795;52.074;4.754;2022-08-19T11:44:26;25.00;99.90
3562;DHT22;1795;52.074;4.754;2022-08-19T11:46:56;25.00;99.90
3562;DHT22;1795;52.074;4.754;2022-08-19T11:49:35;25.10;99.90
3562;DHT22;1795;52.074;4.754;2022-08-19T11:52:03;25.10;99.90
3562;DHT22;1795;52.074;4.754;2022-08-19T11:54:31;25.10;99.90
3562;DHT22;1795;52.074;4.754;2022-08-19T11:57:02;25.10;99.90
3562;DHT22;1795;52.074;4.754;2022-08-19T11:59:30;25.10;99.90
3562;DHT22;1795;52.074;4.754;2022-08-19T12:01:58;25.10;99.90
3562;DHT22;1795;52.074;4.754;2022-08-19T12:04:26;25.10;99.90
3562;DHT22;1795;52.074;4.754;2022-08-19T12:06:54;25.20;99.90
3562;DHT22;1795;52.074;4.754;2022-08-19T12:09:22;25.20;99.90
3562;DHT22;1795;52.074;4.754;2022-08-19T12:11:50;25.20;99.90
3562;DHT22;1795;52.074;4.754;2022-08-19T12:14:19;25.30;99.90
3562;DHT22;1795;52.074;4.754;2022-08-19T12:16:47;25.30;99.90
3562;DHT22;1795;52.074;4.754;2022-08-19T12:19:18;25.30;99.90
3562;DHT22;1795;52.074;4.754;2022-08-19T12:21:49;25.30;99.90
3562;DHT22;1795;52.074;4.754;2022-08-19T12:24:17;25.30;99.90
3562;DHT22;1795;52.074;4.754;2022-08-19T12:26:49;25.30;99.90
3562;DHT22;1795;52.074;4.754;2022-08-19T12:29:21;25.40;99.90
3562;DHT22;1795;52.074;4.754;2022-08-19T12:31:56;25.40;99.90
3562;DHT22;1795;52.074;4.754;2022-08-19T12:34:30;25.50;99.90
3562;DHT22;1795;52.074;4.754;2022-08-19T12:37:01;25.50;99.90
3562;DHT22;1795;52.074;4.754;2022-08-19T12:39:29;25.60;99.90
3562;DHT22;1795;52.074;4.754;2022-08-19T12:41:57;25.60;99.90
3562;DHT22;1795;52.074;4.754;2022-08-19T12:44:27;25.60;99.90
3562;DHT22;1795;52.074;4.754;2022-08-19T12:46:59;25.60;99.90
3562;DHT22;1795;52.074;4.754;2022-08-19T12:49:30;25.70;99.90
3562;DHT22;1795;52.074;4.754;2022-08-19T12:52:20;25.70;99.90
3562;DHT22;1795;52.074;4.754;2022-08-19T12:54:49;25.80;99.90
3562;DHT22;1795;52.074;4.754;2022-08-19T12:57:21;25.80;99.90
3562;DHT22;1795;52.074;4.754;2022-08-19T13:00:02;25.80;99.90
3562;DHT22;1795;52.074;4.754;2022-08-19T13:02:32;25.90;99.90
3562;DHT22;1795;52.074;4.754;2022-08-19T13:05:07;26.00;99.90
3562;DHT22;1795;52.074;4.754;2022-08-19T13:07:36;26.00;99.90
3562;DHT22;1795;52.074;4.754;2022-08-19T13:10:06;26.00;99.90
3562;DHT22;1795;52.074;4.754;2022-08-19T13:12:35;26.10;99.90
3562;DHT22;1795;52.074;4.754;2022-08-19T13:15:05;26.10;99.90
3562;DHT22;1795;52.074;4.754;2022-08-19T13:17:37;26.20;99.90
3562;DHT22;1795;52.074;4.754;2022-08-19T13:20:06;26.20;99.90
3562;DHT22;1795;52.074;4.754;2022-08-19T13:22:35;26.20;99.90
3562;DHT22;1795;52.074;4.754;2022-08-19T13:25:04;26.30;99.90
3562;DHT22;1795;52.074;4.754;2022-08-19T13:27:32;26.30;99.90
3562;DHT22;1795;52.074;4.754;2022-08-19T13:30:00;26.30;99.90
3562;DHT22;1795;52.074;4.754;2022-08-19T13:32:47;26.40;99.90
3562;DHT22;1795;52.074;4.754;2022-08-19T13:35:32;26.40;99.90
3562;DHT22;1795;52.074;4.754;2022-08-19T13:38:00;26.40;99.90
3562;DHT22;1795;52.074;4.754;2022-08-19T13:40:38;26.50;99.90
3562;DHT22;1795;52.074;4.754;2022-08-19T13:43:08;26.50;99.90
3562;DHT22;1795;52.074;4.754;2022-08-19T13:45:49;26.50;99.90
3562;DHT22;1795;52.074;4.754;2022-08-19T13:48:18;26.40;99.90
3562;DHT22;1795;52.074;4.754;2022-08-19T13:50:46;26.50;99.90
3562;DHT22;1795;52.074;4.754;2022-08-19T13:53:15;26.50;99.90
3562;DHT22;1795;52.074;4.754;2022-08-19T13:55:44;26.50;99.90
3562;DHT22;1795;52.074;4.754;2022-08-19T13:58:12;26.50;99.90
3562;DHT22;1795;52.074;4.754;2022-08-19T14:00:42;26.60;99.90
3562;DHT22;1795;52.074;4.754;2022-08-19T14:03:10;26.60;99.90
3562;DHT22;1795;52.074;4.754;2022-08-19T14:05:40;26.60;99.90
3562;DHT22;1795;52.074;4.754;2022-08-19T14:08:08;26.60;99.90
3562;DHT22;1795;52.074;4.754;2022-08-19T14:10:36;26.70;99.90
3562;DHT22;1795;52.074;4.754;2022-08-19T14:13:04;26.70;99.90
3562;DHT22;1795;52.074;4.754;2022-08-19T14:15:32;26.60;99.90
3562;DHT22;1795;52.074;4.754;2022-08-19T14:18:00;26.70;99.90
3562;DHT22;1795;52.074;4.754;2022-08-19T14:20:28;26.70;99.90
3562;DHT22;1795;52.074;4.754;2022-08-19T14:22:57;26.60;99.90
3562;DHT22;1795;52.074;4.754;2022-08-19T14:25:28;26.70;99.90
3562;DHT22;1795;52.074;4.754;2022-08-19T14:27:56;26.70;99.90
3562;DHT22;1795;52.074;4.754;2022-08-19T14:30:26;26.70;99.90
3562;DHT22;1795;52.074;4.754;2022-08-19T14:32:55;26.70;99.90
3562;DHT22;1795;52.074;4.754;2022-08-19T14:35:23;26.70;99.90
3562;DHT22;1795;52.074;4.754;2022-08-19T14:37:51;26.80;99.90
3562;DHT22;1795;52.074;4.754;2022-08-19T14:40:26;26.80;99.90
3562;DHT22;1795;52.074;4.754;2022-08-19T14:42:55;26.80;99.90
3562;DHT22;1795;52.074;4.754;2022-08-19T14:45:26;26.80;99.90
3562;DHT22;1795;52.074;4.754;2022-08-19T14:47:54;26.80;99.90
3562;DHT22;1795;52.074;4.754;2022-08-19T14:50:22;26.80;99.90
3562;DHT22;1795;52.074;4.754;2022-08-19T14:52:58;26.80;99.90
3562;DHT22;1795;52.074;4.754;2022-08-19T14:55:27;26.80;99.90
3562;DHT22;1795;52.074;4.754;2022-08-19T14:57:56;26.80;99.90
3562;DHT22;1795;52.074;4.754;2022-08-19T15:00:25;26.80;99.90
3562;DHT22;1795;52.074;4.754;2022-08-19T15:02:53;26.80;99.90
3562;DHT22;1795;52.074;4.754;2022-08-19T15:05:22;26.80;99.90
3562;DHT22;1795;52.074;4.754;2022-08-19T15:07:50;26.80;99.90
3562;DHT22;1795;52.074;4.754;2022-08-19T15:10:18;26.70;99.90
3562;DHT22;1795;52.074;4.754;2022-08-19T15:12:47;26.70;99.90
3562;DHT22;1795;52.074;4.754;2022-08-19T15:15:17;26.70;99.90
3562;DHT22;1795;52.074;4.754;2022-08-19T15:17:46;26.60;99.90
3562;DHT22;1795;52.074;4.754;2022-08-19T15:20:16;26.60;99.90
3562;DHT22;1795;52.074;4.754;2022-08-19T15:22:44;26.60;99.90
3562;DHT22;1795;52.074;4.754;2022-08-19T15:25:14;26.50;99.90
3562;DHT22;1795;52.074;4.754;2022-08-19T15:27:42;26.50;99.90
3562;DHT22;1795;52.074;4.754;2022-08-19T15:30:18;26.50;99.90
3562;DHT22;1795;52.074;4.754;2022-08-19T15:32:46;26.50;99.90
3562;DHT22;1795;52.074;4.754;2022-08-19T15:35:15;26.40;99.90
3562;DHT22;1795;52.074;4.754;2022-08-19T15:37:45;26.40;99.90
3562;DHT22;1795;52.074;4.754;2022-08-19T15:40:13;26.40;99.90
3562;DHT22;1795;52.074;4.754;2022-08-19T15:42:41;26.40;99.90
3562;DHT22;1795;52.074;4.754;2022-08-19T15:45:12;26.30;99.90
3562;DHT22;1795;52.074;4.754;2022-08-19T15:47:40;26.30;99.90
3562;DHT22;1795;52.074;4.754;2022-08-19T15:50:10;26.20;99.90
3562;DHT22;1795;52.074;4.754;2022-08-19T15:52:44;26.20;99.90
3562;DHT22;1795;52.074;4.754;2022-08-19T15:55:16;26.10;99.90
3562;DHT22;1795;52.074;4.754;2022-08-19T15:58:00;26.00;99.90
3562;DHT22;1795;52.074;4.754;2022-08-19T16:00:56;26.00;99.90
3562;DHT22;1795;52.074;4.754;2022-08-19T16:03:43;25.80;99.90
3562;DHT22;1795;52.074;4.754;2022-08-19T16:06:30;25.80;99.90
3562;DHT22;1795;52.074;4.754;2022-08-19T16:09:00;25.80;99.90
3562;DHT22;1795;52.074;4.754;2022-08-19T16:11:30;25.70;99.90
3562;DHT22;1795;52.074;4.754;2022-08-19T16:14:05;25.70;99.90
3562;DHT22;1795;52.074;4.754;2022-08-19T16:16:37;25.60;99.90
3562;DHT22;1795;52.074;4.754;2022-08-19T16:19:07;25.60;99.90
3562;DHT22;1795;52.074;4.754;2022-08-19T16:21:38;25.50;99.90
3562;DHT22;1795;52.074;4.754;2022-08-19T16:24:09;25.50;99.90
3562;DHT22;1795;52.074;4.754;2022-08-19T16:26:38;25.50;99.90
3562;DHT22;1795;52.074;4.754;2022-08-19T16:29:06;25.40;99.90